Time;durP1;ratioP1;P1;durP2;ratioP2;P2;SDS_P1;SDS_P2;PMS_P1;PMS_P2;Temp;Humidity;BMP_temperature;BMP_pressure;BME280_temperature;BME280_humidity;BME280_pressure;Samples;Min_cycle;Max_cycle;Signal;HPM_P1;HPM_P2
2023/10/06 00:01:00;;;;;;;5.25;3.90;;;14.50;99.90;;;;;;5091555;28;20571;-70
2023/10/06 00:03:26;;;;;;;6.38;3.65;;;14.70;99.90;;;;;;5092112;28;20054;-69
2023/10/06 00:05:53;;;;;;;5.00;3.95;;;14.80;99.90;;;;;;5091645;28;20086;-70
2023/10/06 00:08:22;;;;;;;7.13;3.95;;;14.90;99.90;;;;;;5091478;28;20016;-69
2023/10/06 00:10:51;;;;;;;5.97;4.07;;;15.00;99.90;;;;;;5091825;28;20028;-70
2023/10/06 00:13:37;;;;;;;5.78;4.20;;;15.00;99.90;;;;;;5091612;28;20414;-70
2023/10/06 00:16:07;;;;;;;5.43;3.92;;;15.00;99.90;;;;;;5092071;28;20107;-69
2023/10/06 00:18:36;;;;;;;5.47;3.72;;;15.00;99.90;;;;;;5091375;28;20031;-70
2023/10/06 00:21:14;;;;;;;5.90;4.15;;;15.00;99.90;;;;;;5091319;28;20475;-70
2023/10/06 00:23:43;;;;;;;4.95;3.80;;;15.00;99.90;;;;;;5090771;28;20020;-69
2023/10/06 00:26:15;;;;;;;5.72;4.10;;;15.00;99.90;;;;;;5091166;28;20048;-69
2023/10/06 00:28:42;;;;;;;5.97;3.83;;;15.00;99.90;;;;;;5091621;28;20056;-69
2023/10/06 00:31:08;;;;;;;6.28;4.22;;;14.80;99.90;;;;;;5091299;28;20027;-69
2023/10/06 00:33:37;;;;;;;7.57;4.05;;;14.70;99.90;;;;;;5091221;28;20058;-69
2023/10/06 00:36:16;;;;;;;6.93;4.20;;;14.60;99.90;;;;;;5091507;28;20028;-68
2023/10/06 00:38:50;;;;;;;6.30;4.20;;;14.40;99.90;;;;;;5091519;28;20127;-69
2023/10/06 00:41:17;;;;;;;5.68;4.13;;;14.40;99.90;;;;;;5090967;28;20058;-69
2023/10/06 00:43:46;;;;;;;7.80;4.50;;;14.20;99.90;;;;;;5091007;28;20103;-69
2023/10/06 00:46:14;;;;;;;8.05;4.50;;;14.00;99.90;;;;;;5090947;28;20032;-69
2023/10/06 00:48:41;;;;;;;6.22;3.97;;;14.00;99.90;;;;;;5091627;28;20028;-70
2023/10/06 00:51:21;;;;;;;6.43;4.00;;;13.90;99.90;;;;;;5091093;28;20028;-70
2023/10/06 00:53:47;;;;;;;8.05;4.18;;;13.90;99.90;;;;;;5091015;28;20409;-70
2023/10/06 00:56:15;;;;;;;6.13;4.15;;;13.90;99.90;;;;;;5090550;28;20490;-69
2023/10/06 00:58:42;;;;;;;5.60;4.10;;;13.80;99.90;;;;;;5091015;28;20067;-70
2023/10/06 01:01:12;;;;;;;4.47;3.70;;;13.70;99.90;;;;;;5091072;28;20054;-70
2023/10/06 01:03:42;;;;;;;6.20;4.03;;;13.60;99.90;;;;;;5090942;28;20418;-70
2023/10/06 01:06:13;;;;;;;5.18;3.95;;;13.60;99.90;;;;;;5090891;28;20027;-70
2023/10/06 01:08:40;;;;;;;4.72;4.00;;;13.50;99.90;;;;;;5090610;28;20021;-70
2023/10/06 01:11:17;;;;;;;7.00;4.13;;;13.50;99.90;;;;;;5091079;28;20032;-70
2023/10/06 01:13:55;;;;;;;4.82;4.10;;;13.50;99.90;;;;;;5090881;28;20032;-69
2023/10/06 01:16:34;;;;;;;6.47;4.20;;;13.50;99.90;;;;;;5090870;28;20028;-70
2023/10/06 01:21:47;;;;;;;6.50;4.35;;;13.40;99.90;;;;;;5089893;28;20048;-70
2023/10/06 01:24:24;;;;;;;6.35;4.15;;;13.40;99.90;;;;;;5090717;28;20375;-71
2023/10/06 01:26:51;;;;;;;5.60;4.28;;;13.40;99.90;;;;;;5090831;28;20103;-69
2023/10/06 01:29:17;;;;;;;7.38;4.43;;;13.40;99.90;;;;;;5090690;28;20682;-70
2023/10/06 01:31:49;;;;;;;6.10;4.53;;;13.40;99.90;;;;;;5090915;28;20025;-70
2023/10/06 01:34:15;;;;;;;7.47;4.38;;;13.30;99.90;;;;;;5093416;28;20466;-69
2023/10/06 01:36:45;;;;;;;5.63;4.10;;;13.30;99.90;;;;;;5093364;28;20039;-70
2023/10/06 01:39:17;;;;;;;6.65;4.18;;;13.30;99.90;;;;;;5093925;28;20111;-70
2023/10/06 01:41:46;;;;;;;6.10;4.50;;;13.50;99.90;;;;;;5094472;28;20024;-71
2023/10/06 01:44:15;;;;;;;9.20;4.57;;;13.60;99.90;;;;;;5094325;28;20052;-70
2023/10/06 01:46:53;;;;;;;7.75;4.40;;;13.80;99.90;;;;;;5094464;28;20024;-70
2023/10/06 01:49:21;;;;;;;5.40;4.03;;;13.90;99.90;;;;;;5094341;28;20028;-70
2023/10/06 01:51:50;;;;;;;5.80;4.07;;;14.00;99.90;;;;;;5094140;28;20036;-70
2023/10/06 01:54:25;;;;;;;6.90;4.50;;;14.00;99.90;;;;;;5093855;28;20583;-70
2023/10/06 01:56:53;;;;;;;5.43;4.28;;;14.10;99.90;;;;;;5094442;28;20016;-70
2023/10/06 01:59:20;;;;;;;5.72;4.22;;;14.00;99.90;;;;;;5092821;28;20451;-70
2023/10/06 02:01:47;;;;;;;7.40;4.57;;;14.00;99.90;;;;;;5093910;28;20032;-70
2023/10/06 02:04:15;;;;;;;8.02;4.93;;;14.00;99.90;;;;;;5093934;28;20051;-70
2023/10/06 02:06:41;;;;;;;6.00;4.65;;;14.00;99.90;;;;;;5094140;28;20028;-70
2023/10/06 02:09:18;;;;;;;6.45;4.30;;;14.00;99.90;;;;;;5093583;28;20512;-70
2023/10/06 02:11:49;;;;;;;6.80;4.22;;;13.80;99.90;;;;;;5093754;28;20121;-70
2023/10/06 02:14:18;;;;;;;6.85;4.65;;;13.70;99.90;;;;;;5093753;28;20027;-69
2023/10/06 02:16:48;;;;;;;8.65;4.63;;;13.50;99.90;;;;;;5093895;28;20553;-69
2023/10/06 02:19:17;;;;;;;7.65;4.35;;;13.40;99.90;;;;;;5094140;28;20126;-70
2023/10/06 02:21:48;;;;;;;7.03;4.50;;;13.30;99.90;;;;;;5093465;28;20417;-69
2023/10/06 02:24:18;;;;;;;8.40;4.28;;;13.10;99.90;;;;;;5093235;28;20036;-69
2023/10/06 02:26:50;;;;;;;6.22;4.47;;;13.00;99.90;;;;;;5093579;28;20024;-69
2023/10/06 02:29:26;;;;;;;6.20;4.55;;;12.90;99.90;;;;;;5093792;28;20498;-69
2023/10/06 02:32:00;;;;;;;4.63;4.13;;;12.90;99.90;;;;;;5092531;28;20028;-69
2023/10/06 02:34:32;;;;;;;6.78;4.40;;;12.80;99.90;;;;;;5093257;28;20446;-70
2023/10/06 02:37:00;;;;;;;6.00;4.50;;;12.70;99.90;;;;;;5093128;28;20024;-70
2023/10/06 02:39:28;;;;;;;8.35;5.00;;;12.70;99.90;;;;;;5093099;28;20198;-70
2023/10/06 02:41:57;;;;;;;6.18;4.40;;;12.60;99.90;;;;;;5093293;28;20107;-69
2023/10/06 02:44:24;;;;;;;6.30;4.30;;;12.70;99.90;;;;;;5092730;28;20027;-69
2023/10/06 02:46:53;;;;;;;7.60;4.88;;;12.60;99.90;;;;;;5093030;28;20031;-70
2023/10/06 02:49:31;;;;;;;5.60;4.07;;;12.50;99.90;;;;;;5093199;28;20024;-69
2023/10/06 02:52:00;;;;;;;5.45;4.30;;;12.60;99.90;;;;;;5092819;28;20081;-69
2023/10/06 02:54:28;;;;;;;7.55;4.60;;;12.60;99.90;;;;;;5093062;28;20417;-69
2023/10/06 02:56:55;;;;;;;5.32;4.05;;;12.60;99.90;;;;;;5092961;28;20024;-69
2023/10/06 02:59:23;;;;;;;7.10;4.25;;;12.50;99.90;;;;;;5091999;28;20077;-69
2023/10/06 03:01:54;;;;;;;6.32;4.30;;;12.40;99.90;;;;;;5092724;28;20036;-69
2023/10/06 03:04:26;;;;;;;6.65;4.30;;;12.40;99.90;;;;;;5092803;28;20044;-69
2023/10/06 03:06:56;;;;;;;6.95;4.50;;;12.40;99.90;;;;;;5092098;28;20032;-69
2023/10/06 03:09:29;;;;;;;5.15;4.40;;;12.40;99.90;;;;;;5092899;28;20081;-70
2023/10/06 03:11:58;;;;;;;5.38;4.45;;;12.30;99.90;;;;;;5093143;28;20087;-69
2023/10/06 03:14:37;;;;;;;6.65;4.57;;;12.30;99.90;;;;;;5092597;28;20421;-69
2023/10/06 03:17:04;;;;;;;7.28;4.80;;;12.30;99.90;;;;;;5092466;28;20547;-67
2023/10/06 03:19:33;;;;;;;7.63;4.57;;;12.30;99.90;;;;;;5092324;28;20128;-69
2023/10/06 03:22:04;;;;;;;7.07;4.68;;;12.40;99.90;;;;;;5092002;28;20032;-69
2023/10/06 03:24:33;;;;;;;8.05;4.80;;;12.60;99.90;;;;;;5092250;28;20474;-69
2023/10/06 03:27:04;;;;;;;5.97;4.40;;;12.80;99.90;;;;;;5092713;28;20020;-70
2023/10/06 03:29:46;;;;;;;7.47;4.85;;;12.90;99.90;;;;;;5092253;28;20076;-69
2023/10/06 03:32:14;;;;;;;6.47;4.60;;;13.00;99.90;;;;;;5092386;28;20103;-69
2023/10/06 03:34:43;;;;;;;8.18;4.85;;;13.00;99.90;;;;;;5091773;28;20020;-69
2023/10/06 03:37:10;;;;;;;5.45;4.90;;;13.10;99.90;;;;;;5092212;28;20036;-69
2023/10/06 03:39:47;;;;;;;6.97;4.68;;;13.10;99.90;;;;;;5091906;28;20028;-69
2023/10/06 03:42:17;;;;;;;6.10;4.60;;;13.10;99.90;;;;;;5092055;28;20453;-69
2023/10/06 03:44:45;;;;;;;9.05;4.80;;;13.10;99.90;;;;;;5092004;28;20020;-70
2023/10/06 03:47:11;;;;;;;6.85;4.90;;;13.10;99.90;;;;;;5092498;28;20047;-70
2023/10/06 03:49:37;;;;;;;6.18;4.82;;;13.10;99.90;;;;;;5091746;28;20020;-69
2023/10/06 03:52:09;;;;;;;5.72;4.85;;;13.00;99.90;;;;;;5092084;28;20020;-69
2023/10/06 03:54:36;;;;;;;7.18;4.55;;;12.80;99.90;;;;;;5091799;28;20036;-68
2023/10/06 03:57:04;;;;;;;6.43;5.10;;;12.60;99.90;;;;;;5090903;28;20481;-69
2023/10/06 03:59:30;;;;;;;5.82;4.75;;;12.40;99.90;;;;;;5091985;28;20032;-68
2023/10/06 04:01:55;;;;;;;5.75;5.03;;;12.40;99.90;;;;;;5091805;28;20082;-69
2023/10/06 04:04:26;;;;;;;7.05;4.90;;;12.30;99.90;;;;;;5091371;28;20032;-69
2023/10/06 04:06:54;;;;;;;6.60;4.90;;;12.20;99.90;;;;;;5091710;28;20059;-70
2023/10/06 04:09:27;;;;;;;6.15;5.00;;;12.20;99.90;;;;;;5091802;28;20443;-69
2023/10/06 04:11:54;;;;;;;5.72;4.90;;;12.00;99.90;;;;;;5092291;28;20085;-69
2023/10/06 04:14:20;;;;;;;7.63;5.47;;;11.90;99.90;;;;;;5091464;28;20405;-69
2023/10/06 04:16:46;;;;;;;7.20;5.15;;;11.80;99.90;;;;;;5091620;28;20125;-69
2023/10/06 04:19:15;;;;;;;7.55;5.20;;;11.80;99.90;;;;;;5091003;28;20596;-69
2023/10/06 04:21:42;;;;;;;7.95;5.38;;;11.80;99.90;;;;;;5091323;28;20498;-69
2023/10/06 04:24:08;;;;;;;8.25;5.28;;;11.80;99.90;;;;;;5091260;28;20031;-69
2023/10/06 04:26:33;;;;;;;8.35;5.80;;;11.90;99.90;;;;;;5091749;28;20032;-68
2023/10/06 04:28:59;;;;;;;8.25;5.88;;;11.80;99.90;;;;;;5091117;28;20059;-69
2023/10/06 04:31:25;;;;;;;7.80;5.45;;;11.70;99.90;;;;;;5091295;28;20020;-69
2023/10/06 04:33:50;;;;;;;7.97;5.80;;;11.80;99.90;;;;;;5090919;28;20020;-69
2023/10/06 04:36:20;;;;;;;7.90;5.68;;;11.70;99.90;;;;;;5091293;28;20128;-69
2023/10/06 04:38:46;;;;;;;8.57;5.88;;;11.70;99.90;;;;;;5091635;28;20044;-69
2023/10/06 04:41:14;;;;;;;7.65;5.97;;;11.70;99.90;;;;;;5090801;28;20043;-68
2023/10/06 04:43:44;;;;;;;8.23;6.13;;;11.60;99.90;;;;;;5091609;28;20020;-69
2023/10/06 04:46:10;;;;;;;8.27;5.82;;;11.60;99.90;;;;;;5090963;28;20028;-67
2023/10/06 04:48:36;;;;;;;7.55;5.82;;;11.50;99.90;;;;;;5090987;28;20024;-68
2023/10/06 04:51:06;;;;;;;9.02;5.82;;;11.50;99.90;;;;;;5090902;28;20111;-67
2023/10/06 04:53:35;;;;;;;15.02;5.90;;;11.50;99.90;;;;;;5090945;28;20024;-70
2023/10/06 04:56:03;;;;;;;9.15;5.90;;;11.50;99.90;;;;;;5091046;28;20510;-70
2023/10/06 04:58:29;;;;;;;9.23;5.68;;;11.50;99.90;;;;;;5091160;28;20020;-70
2023/10/06 05:00:59;;;;;;;7.78;5.93;;;11.60;99.90;;;;;;5090821;28;20074;-70
2023/10/06 05:03:40;;;;;;;10.20;5.78;;;11.70;99.90;;;;;;5090982;28;20021;-70
2023/10/06 05:06:09;;;;;;;8.75;5.80;;;11.80;99.90;;;;;;5090951;28;20043;-70
2023/10/06 05:08:35;;;;;;;9.00;5.88;;;12.00;99.90;;;;;;5092816;28;20024;-70
2023/10/06 05:11:02;;;;;;;6.80;5.50;;;12.10;99.90;;;;;;5095023;28;20032;-70
2023/10/06 05:13:29;;;;;;;9.02;5.40;;;12.30;99.90;;;;;;5094719;28;20051;-69
2023/10/06 05:15:55;;;;;;;9.43;5.55;;;12.30;99.90;;;;;;5094714;28;20095;-70
2023/10/06 05:18:20;;;;;;;7.15;5.70;;;12.30;99.90;;;;;;5094979;28;20596;-70
2023/10/06 05:20:46;;;;;;;8.73;5.75;;;12.40;99.90;;;;;;5095080;28;20401;-70
2023/10/06 05:23:14;;;;;;;9.50;5.65;;;12.50;99.90;;;;;;5094648;28;20086;-70
2023/10/06 05:25:41;;;;;;;7.07;5.35;;;12.40;99.90;;;;;;5094755;28;20107;-70
2023/10/06 05:28:10;;;;;;;7.90;5.70;;;12.40;99.90;;;;;;5094589;28;20068;-70
2023/10/06 05:30:37;;;;;;;6.65;5.03;;;12.40;99.90;;;;;;5094436;28;20028;-70
2023/10/06 05:33:05;;;;;;;9.77;5.78;;;12.30;99.90;;;;;;5094572;28;20027;-70
2023/10/06 05:35:39;;;;;;;8.05;5.63;;;12.10;99.90;;;;;;5094520;28;20032;-70
2023/10/06 05:38:08;;;;;;;;;;;12.00;99.90;;;;;;5094936;28;20016;-70
2023/10/06 05:40:37;;;;;;;8.90;5.63;;;11.80;99.90;;;;;;5094489;28;19966;-70
2023/10/06 05:43:04;;;;;;;9.57;6.00;;;11.70;99.90;;;;;;5094536;28;20024;-70
2023/10/06 05:45:30;;;;;;;9.23;6.15;;;11.60;99.90;;;;;;5094004;28;20070;-69
2023/10/06 05:48:06;;;;;;;7.38;5.78;;;11.50;99.90;;;;;;5094391;28;20052;-69
2023/10/06 05:50:35;;;;;;;7.57;5.50;;;11.40;99.90;;;;;;5094309;28;20055;-70
2023/10/06 05:53:02;;;;;;;7.88;6.25;;;11.30;99.90;;;;;;5094506;28;20027;-69
2023/10/06 05:55:35;;;;;;;8.23;6.10;;;11.20;99.90;;;;;;5094103;28;20099;-70
2023/10/06 05:58:01;;;;;;;10.93;6.43;;;11.20;99.90;;;;;;5094027;28;20066;-68
2023/10/06 06:00:31;;;;;;;8.18;6.25;;;11.20;99.90;;;;;;5093584;28;20603;-70
2023/10/06 06:03:10;;;;;;;8.90;6.95;;;11.20;99.90;;;;;;5094395;28;20016;-69
2023/10/06 06:05:38;;;;;;;10.07;7.03;;;11.20;99.90;;;;;;5094026;28;20112;-70
2023/10/06 06:08:10;;;;;;;9.05;7.13;;;11.20;99.90;;;;;;5093939;28;20099;-70
2023/10/06 06:10:36;;;;;;;8.93;7.25;;;11.10;99.90;;;;;;5093792;28;20067;-70
2023/10/06 06:13:02;;;;;;;11.82;7.50;;;11.20;99.90;;;;;;5093691;28;20465;-70
2023/10/06 06:15:29;;;;;;;10.10;6.90;;;11.20;99.90;;;;;;5093751;28;20024;-70
2023/10/06 06:17:55;;;;;;;10.05;7.35;;;11.20;99.90;;;;;;5093737;28;20028;-70
2023/10/06 06:20:24;;;;;;;9.23;7.45;;;11.20;99.90;;;;;;5092557;28;20050;-70
2023/10/06 06:22:59;;;;;;;9.45;7.32;;;11.20;99.90;;;;;;5093900;28;20553;-70
2023/10/06 06:25:28;;;;;;;9.65;7.10;;;11.10;99.90;;;;;;5093262;28;20441;-71
2023/10/06 06:28:00;;;;;;;9.45;6.88;;;11.20;99.90;;;;;;5093162;28;20048;-69
2023/10/06 06:30:26;;;;;;;9.32;7.00;;;11.20;99.90;;;;;;5093400;28;20028;-70
2023/10/06 06:32:54;;;;;;;12.52;7.10;;;11.20;99.90;;;;;;5093310;28;20036;-70
2023/10/06 06:35:21;;;;;;;11.00;7.00;;;11.20;99.90;;;;;;5093251;28;20035;-70
2023/10/06 06:38:01;;;;;;;11.32;7.00;;;11.20;99.90;;;;;;5093828;28;20020;-70
2023/10/06 06:40:28;;;;;;;10.32;6.80;;;11.20;99.90;;;;;;5092939;28;20043;-71
2023/10/06 06:42:57;;;;;;;10.00;6.78;;;11.20;99.90;;;;;;5093134;28;20059;-71
2023/10/06 06:45:28;;;;;;;11.18;7.25;;;11.30;99.90;;;;;;5093363;28;20043;-70
2023/10/06 06:47:55;;;;;;;12.77;7.25;;;11.60;99.90;;;;;;5093160;28;20523;-68
2023/10/06 06:50:21;;;;;;;15.63;7.00;;;11.80;99.90;;;;;;5091730;28;20028;-70
2023/10/06 06:52:54;;;;;;;11.60;7.03;;;12.00;99.90;;;;;;5093389;28;20093;-69
2023/10/06 06:55:20;;;;;;;10.82;6.90;;;12.20;99.90;;;;;;5092895;28;20032;-69
2023/10/06 06:57:49;;;;;;;11.75;6.80;;;12.30;99.90;;;;;;5092593;28;20028;-68
2023/10/06 07:00:18;;;;;;;13.02;6.75;;;12.40;99.90;;;;;;5092847;28;20036;-70
2023/10/06 07:02:44;;;;;;;10.73;6.43;;;12.50;99.90;;;;;;5092753;28;20031;-70
2023/10/06 07:05:18;;;;;;;11.88;5.90;;;12.60;99.90;;;;;;5092832;28;20052;-71
2023/10/06 07:07:45;;;;;;;11.07;6.32;;;12.80;99.90;;;;;;5092669;28;20024;-71
2023/10/06 07:10:14;;;;;;;7.85;5.22;;;12.90;99.90;;;;;;5092507;28;20036;-71
2023/10/06 07:12:50;;;;;;;8.13;5.38;;;12.90;99.90;;;;;;5092259;28;20016;-70
2023/10/06 07:15:17;;;;;;;12.32;5.53;;;12.90;99.90;;;;;;5092670;28;20024;-69
2023/10/06 07:17:45;;;;;;;10.55;5.10;;;12.80;99.90;;;;;;5092571;28;20427;-70
2023/10/06 07:20:18;;;;;;;8.82;5.88;;;12.70;99.90;;;;;;5092434;28;20089;-69
2023/10/06 07:22:45;;;;;;;;;;;12.70;99.90;;;;;;5093299;28;20032;-69
2023/10/06 07:25:11;;;;;;;9.50;5.45;;;12.70;99.90;;;;;;5092111;28;20385;-69
2023/10/06 07:27:38;;;;;;;9.93;6.00;;;12.70;99.90;;;;;;5091999;28;20514;-69
2023/10/06 07:30:09;;;;;;;6.75;4.88;;;12.70;99.90;;;;;;5092703;28;20106;-70
2023/10/06 07:32:40;;;;;;;8.13;5.50;;;12.70;99.90;;;;;;5092249;28;20020;-69
2023/10/06 07:35:08;;;;;;;6.82;5.60;;;12.60;99.90;;;;;;5092187;28;20442;-69
2023/10/06 07:37:34;;;;;;;9.85;5.05;;;12.70;99.90;;;;;;5092249;28;20024;-70
2023/10/06 07:40:03;;;;;;;6.93;5.18;;;12.70;99.90;;;;;;5092072;28;20036;-69
2023/10/06 07:42:29;;;;;;;7.93;5.03;;;12.80;99.90;;;;;;5090460;28;20561;-69
2023/10/06 07:44:57;;;;;;;7.25;5.00;;;12.90;99.90;;;;;;5091980;28;20139;-69
2023/10/06 07:47:24;;;;;;;8.15;4.80;;;12.90;99.90;;;;;;5091992;28;20024;-69
2023/10/06 07:49:50;;;;;;;6.85;4.85;;;13.00;99.90;;;;;;5092349;28;20552;-69
2023/10/06 07:52:19;;;;;;;8.50;4.95;;;13.10;99.90;;;;;;5091915;28;20077;-68
2023/10/06 07:54:47;;;;;;;7.80;4.88;;;13.10;99.90;;;;;;5091748;28;20032;-69
2023/10/06 07:57:12;;;;;;;8.10;5.07;;;13.20;99.90;;;;;;5091541;28;20027;-69
2023/10/06 07:59:39;;;;;;;5.75;4.40;;;13.30;99.90;;;;;;5091722;28;20550;-70
2023/10/06 08:02:06;;;;;;;6.72;4.70;;;13.40;99.90;;;;;;5091919;28;20039;-70
2023/10/06 08:04:32;;;;;;;6.53;4.68;;;13.50;99.90;;;;;;5091918;28;20439;-69
2023/10/06 08:07:00;;;;;;;7.00;4.03;;;13.50;99.90;;;;;;5091725;28;20032;-69
2023/10/06 08:09:26;;;;;;;10.18;4.53;;;13.60;99.90;;;;;;5091604;28;20399;-70
2023/10/06 08:11:54;;;;;;;7.53;4.43;;;13.70;99.90;;;;;;5091313;28;20635;-69
2023/10/06 08:14:20;;;;;;;7.03;4.53;;;13.80;99.90;;;;;;5091857;28;20398;-69
2023/10/06 08:16:49;;;;;;;10.35;4.68;;;13.90;99.90;;;;;;5091601;28;20020;-69
2023/10/06 08:19:15;;;;;;;9.43;4.32;;;14.00;99.90;;;;;;5091452;28;20020;-69
2023/10/06 08:21:41;;;;;;;6.80;4.45;;;14.10;99.90;;;;;;5091543;28;20036;-69
2023/10/06 08:24:07;;;;;;;6.50;4.30;;;14.20;99.90;;;;;;5091181;28;20023;-70
2023/10/06 08:26:37;;;;;;;8.68;4.40;;;14.40;99.90;;;;;;5091084;28;20028;-70
2023/10/06 08:29:06;;;;;;;7.75;4.32;;;14.60;99.90;;;;;;5091344;28;20048;-70
2023/10/06 08:31:31;;;;;;;7.15;4.40;;;14.80;99.90;;;;;;5091735;28;20799;-70
2023/10/06 08:34:05;;;;;;;6.65;4.47;;;15.00;99.90;;;;;;5091457;28;20066;-73
2023/10/06 08:36:31;;;;;;;7.53;4.40;;;15.10;99.90;;;;;;5091237;28;20094;-72
2023/10/06 08:38:58;;;;;;;9.70;4.40;;;15.30;99.90;;;;;;5090960;28;20107;-73
2023/10/06 08:41:43;;;;;;;8.15;4.53;;;15.50;99.90;;;;;;5091298;28;20040;-73
2023/10/06 08:44:12;;;;;;;9.77;4.60;;;15.60;99.90;;;;;;5090516;28;20031;-73
2023/10/06 08:46:43;;;;;;;8.80;4.30;;;15.80;99.90;;;;;;5091659;28;20043;-73
2023/10/06 08:49:09;;;;;;;6.55;4.32;;;15.90;99.90;;;;;;5089972;28;20024;-72
2023/10/06 08:51:36;;;;;;;7.18;4.22;;;16.10;99.90;;;;;;5091245;28;20027;-73
2023/10/06 08:54:05;;;;;;;5.45;4.10;;;16.30;99.90;;;;;;5090893;28;20063;-72
2023/10/06 08:56:33;;;;;;;8.05;3.65;;;16.40;99.90;;;;;;5091077;28;20089;-72
2023/10/06 08:59:00;;;;;;;7.20;3.75;;;16.30;99.90;;;;;;5091122;28;20027;-73
2023/10/06 09:01:28;;;;;;;5.10;3.72;;;16.40;99.90;;;;;;5091359;28;20173;-72
2023/10/06 09:04:00;;;;;;;5.68;3.60;;;16.40;99.90;;;;;;5090966;28;20030;-73
2023/10/06 09:06:26;;;;;;;7.43;4.10;;;16.50;99.90;;;;;;5091039;28;20456;-73
2023/10/06 09:08:51;;;;;;;8.45;4.30;;;16.50;99.90;;;;;;5090664;28;20058;-72
2023/10/06 09:11:20;;;;;;;8.13;3.72;;;16.50;99.90;;;;;;5090941;28;20118;-70
2023/10/06 09:13:48;;;;;;;8.52;3.90;;;16.60;99.90;;;;;;5091302;28;20024;-70
2023/10/06 09:16:16;;;;;;;6.68;3.90;;;16.70;99.90;;;;;;5090742;28;20024;-70
2023/10/06 09:18:42;;;;;;;4.93;3.65;;;16.80;99.90;;;;;;5090838;28;20111;-70
2023/10/06 09:21:12;;;;;;;6.07;3.67;;;17.00;99.90;;;;;;5091182;28;20189;-69
2023/10/06 09:23:40;;;;;;;9.73;4.18;;;17.10;99.90;;;;;;5090316;28;20020;-69
2023/10/06 09:26:13;;;;;;;8.18;4.25;;;17.10;99.90;;;;;;5090863;28;20028;-69
2023/10/06 09:28:52;;;;;;;6.50;3.60;;;17.20;99.90;;;;;;5090735;28;20087;-69
2023/10/06 09:31:32;;;;;;;9.18;5.22;;;17.30;99.90;;;;;;5091335;28;20024;-69
2023/10/06 09:33:59;;;;;;;11.25;7.47;;;17.30;99.90;;;;;;5090740;28;20031;-69
2023/10/06 09:36:30;;;;;;;14.27;7.50;;;17.30;99.90;;;;;;5090640;28;20293;-69
2023/10/06 09:39:03;;;;;;;11.77;7.63;;;17.30;99.90;;;;;;5090284;28;20039;-69
2023/10/06 09:41:32;;;;;;;12.40;7.95;;;17.30;99.90;;;;;;5091082;28;20040;-70
2023/10/06 09:44:03;;;;;;;11.77;7.68;;;17.20;99.90;;;;;;5090322;28;20032;-69
2023/10/06 09:46:34;;;;;;;11.70;6.68;;;17.30;99.90;;;;;;5090680;28;20054;-70
2023/10/06 09:49:05;;;;;;;10.32;6.53;;;17.30;99.90;;;;;;5090843;28;20500;-69
2023/10/06 09:51:33;;;;;;;11.50;6.72;;;17.30;99.90;;;;;;5090266;28;20020;-69
2023/10/06 09:53:59;;;;;;;9.93;6.65;;;17.40;99.90;;;;;;5090615;28;20440;-69
2023/10/06 09:56:25;;;;;;;14.05;6.90;;;17.40;99.90;;;;;;5075305;28;20039;-68
2023/10/06 09:58:51;;;;;;;13.13;7.00;;;17.40;99.90;;;;;;5094456;28;20028;-70
2023/10/06 10:01:20;;;;;;;13.05;6.90;;;17.50;99.90;;;;;;5094097;28;20038;-70
2023/10/06 10:03:48;;;;;;;11.65;7.00;;;17.80;99.90;;;;;;5093910;28;20028;-70
2023/10/06 10:06:16;;;;;;;11.35;6.95;;;18.10;99.90;;;;;;5094138;28;20085;-70
2023/10/06 10:08:41;;;;;;;9.43;6.38;;;18.40;99.90;;;;;;5093690;28;20099;-70
2023/10/06 10:11:14;;;;;;;15.75;7.15;;;18.60;99.90;;;;;;5094320;28;20111;-74
2023/10/06 10:14:02;;;;;;;13.13;7.00;;;18.80;99.90;;;;;;5094381;28;20593;-73
2023/10/06 10:16:46;;;;;;;12.35;7.07;;;18.70;99.90;;;;;;5094261;28;20048;-73
2023/10/06 10:19:18;;;;;;;13.43;6.80;;;18.90;99.90;;;;;;5093994;28;20520;-73
2023/10/06 10:21:44;;;;;;;10.95;6.72;;;19.10;99.90;;;;;;5093594;28;20111;-74
2023/10/06 10:24:13;;;;;;;14.02;6.85;;;19.30;99.90;;;;;;5093823;28;20020;-75
2023/10/06 10:26:39;;;;;;;13.45;6.72;;;19.40;99.90;;;;;;5093578;28;20024;-75
2023/10/06 10:29:17;;;;;;;8.93;6.03;;;19.40;99.90;;;;;;5093662;28;20079;-74
2023/10/06 10:31:44;;;;;;;9.07;5.72;;;19.50;99.90;;;;;;5093964;28;20533;-75
2023/10/06 10:34:22;;;;;;;9.65;5.57;;;19.60;99.90;;;;;;5093594;28;20017;-74
2023/10/06 10:36:54;;;;;;;10.93;5.57;;;19.60;99.90;;;;;;5093104;28;20505;-70
2023/10/06 10:39:21;;;;;;;8.77;5.18;;;19.50;99.90;;;;;;5093309;28;20040;-72
2023/10/06 10:41:47;;;;;;;8.95;5.20;;;19.50;99.90;;;;;;5093439;28;20132;-72
2023/10/06 10:44:18;;;;;;;9.00;4.75;;;19.60;99.90;;;;;;5093142;28;20503;-73
2023/10/06 10:46:48;;;;;;;7.28;4.10;;;19.60;99.90;;;;;;5093418;28;20024;-74
2023/10/06 10:49:19;;;;;;;6.53;3.53;;;19.70;99.90;;;;;;5092339;28;20490;-75
2023/10/06 10:51:55;;;;;;;8.02;4.32;;;19.70;99.90;;;;;;5091828;28;20024;-75
2023/10/06 10:54:33;;;;;;;8.05;4.30;;;19.80;99.90;;;;;;5092738;28;20024;-75
2023/10/06 10:57:06;;;;;;;6.35;4.18;;;19.80;99.90;;;;;;5092682;28;20028;-75
2023/10/06 11:00:20;;;;;;;8.85;5.25;;;19.90;99.90;;;;;;5092816;28;20093;-74
2023/10/06 11:02:49;;;;;;;9.55;4.60;;;20.00;99.90;;;;;;5092661;28;20031;-74
2023/10/06 11:05:22;;;;;;;7.78;4.43;;;20.10;99.90;;;;;;5092855;28;20024;-74
2023/10/06 11:08:06;;;;;;;11.57;5.40;;;20.20;99.90;;;;;;5092321;28;20035;-75
2023/10/06 11:10:33;;;;;;;7.47;4.13;;;20.30;99.90;;;;;;5093533;28;20031;-75
2023/10/06 11:13:19;;;;;;;5.40;3.60;;;20.40;99.90;;;;;;5092686;28;20567;-74
2023/10/06 11:15:45;;;;;;;7.13;4.28;;;20.40;99.90;;;;;;5093121;28;20055;-76
2023/10/06 11:18:13;;;;;;;9.98;4.38;;;20.50;99.90;;;;;;5093111;28;20040;-76
2023/10/06 11:20:39;;;;;;;6.85;4.30;;;20.60;99.90;;;;;;5092124;28;20111;-76
2023/10/06 11:23:06;;;;;;;6.25;4.03;;;20.60;99.90;;;;;;5092378;28;20099;-76
2023/10/06 11:25:35;;;;;;;6.63;3.95;;;20.70;99.90;;;;;;5092362;28;20059;-76
2023/10/06 11:28:08;;;;;;;7.93;4.47;;;20.80;99.90;;;;;;5092518;28;20039;-70
2023/10/06 11:30:38;;;;;;;6.30;4.07;;;21.00;99.90;;;;;;5092394;28;20039;-70
2023/10/06 11:33:06;;;;;;;10.98;4.47;;;21.00;99.90;;;;;;5092031;28;20341;-69
2023/10/06 11:35:33;;;;;;;7.40;4.80;;;21.00;99.90;;;;;;5092673;28;20051;-70
2023/10/06 11:38:02;;;;;;;7.95;4.22;;;20.90;99.90;;;;;;5092323;28;20020;-70
2023/10/06 11:40:30;;;;;;;10.55;3.90;;;20.90;99.90;;;;;;5090882;28;20498;-71
2023/10/06 11:43:08;;;;;;;9.48;3.85;;;21.10;99.90;;;;;;5092320;28;20035;-70
2023/10/06 11:45:36;;;;;;;9.32;4.13;;;21.50;99.90;;;;;;5092022;28;20103;-70
2023/10/06 11:48:02;;;;;;;9.40;4.50;;;21.90;99.90;;;;;;5091750;28;20047;-70
2023/10/06 11:50:35;;;;;;;10.60;4.18;;;22.10;99.90;;;;;;5092170;28;20067;-71
2023/10/06 11:53:01;;;;;;;8.45;4.15;;;22.10;99.90;;;;;;5091973;28;20024;-69
2023/10/06 11:55:34;;;;;;;14.50;4.60;;;22.20;99.90;;;;;;5092442;28;20031;-71
2023/10/06 11:58:01;;;;;;;10.30;4.47;;;22.30;99.90;;;;;;5092427;28;20031;-71
2023/10/06 12:00:35;;;;;;;10.43;4.15;;;22.20;99.90;;;;;;5091630;28;20032;-70
2023/10/06 12:03:01;;;;;;;10.60;4.10;;;22.50;99.90;;;;;;5091359;28;20024;-69
2023/10/06 12:05:27;;;;;;;11.63;4.20;;;22.70;99.90;;;;;;5092218;28;20077;-71
2023/10/06 12:07:59;;;;;;;9.27;4.30;;;22.70;99.90;;;;;;5091861;28;20028;-70
2023/10/06 12:10:25;;;;;;;8.63;4.05;;;22.60;99.90;;;;;;5091700;28;20028;-71
2023/10/06 12:12:51;;;;;;;8.65;3.83;;;22.60;99.90;;;;;;5091694;28;20050;-70
2023/10/06 12:15:18;;;;;;;10.55;4.40;;;22.70;99.90;;;;;;5091904;28;20035;-70
2023/10/06 12:17:45;;;;;;;5.10;4.10;;;22.70;99.90;;;;;;5090495;28;20360;-71
2023/10/06 12:20:15;;;;;;;6.57;4.15;;;22.80;99.90;;;;;;5091452;28;20028;-70
2023/10/06 12:22:44;;;;;;;9.55;5.10;;;22.80;99.90;;;;;;5091620;28;20094;-71
2023/10/06 12:25:17;;;;;;;8.27;4.25;;;22.80;99.90;;;;;;5091300;28;20023;-70
2023/10/06 12:27:43;;;;;;;6.73;4.03;;;22.80;99.90;;;;;;5091306;28;20052;-71
2023/10/06 12:30:14;;;;;;;6.35;3.88;;;22.70;99.90;;;;;;5091283;28;20436;-71
2023/10/06 12:32:41;;;;;;;8.20;4.80;;;22.70;99.90;;;;;;5091105;28;20032;-71
2023/10/06 12:35:08;;;;;;;5.68;3.85;;;22.90;99.90;;;;;;5091765;28;20036;-70
2023/10/06 12:37:40;;;;;;;7.35;3.95;;;22.90;99.90;;;;;;5091202;28;20028;-70
2023/10/06 12:40:08;;;;;;;8.85;3.75;;;23.00;99.90;;;;;;5091186;28;20513;-69
2023/10/06 12:42:35;;;;;;;5.88;3.65;;;23.10;99.90;;;;;;5091371;28;20048;-70
2023/10/06 12:45:02;;;;;;;8.43;4.13;;;23.10;99.90;;;;;;5089841;28;20056;-71
2023/10/06 12:47:28;;;;;;;6.80;3.83;;;23.10;99.90;;;;;;5090882;28;20024;-71
2023/10/06 12:49:58;;;;;;;7.40;3.88;;;23.10;99.90;;;;;;5091181;28;20444;-71
2023/10/06 12:52:24;;;;;;;5.55;3.63;;;23.20;99.90;;;;;;5091219;28;20058;-71
2023/10/06 12:54:49;;;;;;;8.05;3.53;;;23.30;99.90;;;;;;5091446;28;20506;-70
2023/10/06 12:57:15;;;;;;;6.50;3.55;;;23.40;99.90;;;;;;5090787;28;20502;-71
2023/10/06 12:59:41;;;;;;;10.77;4.47;;;23.50;99.90;;;;;;5089543;28;20032;-70